sensor_id;sensor_type;location;lat;lon;timestamp;pressure;altitude;pressure_sealevel;temperature;humidity
66689;BME280;53587;59.318;18.084;2023-08-08T00:02:17;99037.75;;;22.93;82.53
66689;BME280;53587;59.318;18.084;2023-08-08T00:04:43;99043.75;;;23.15;79.64
66689;BME280;53587;59.318;18.084;2023-08-08T00:07:08;99048.44;;;23.30;79.41
66689;BME280;53587;59.318;18.084;2023-08-08T00:09:33;99049.56;;;23.49;79.40
66689;BME280;53587;59.318;18.084;2023-08-08T00:11:58;99046.22;;;23.63;77.18
66689;BME280;53587;59.318;18.084;2023-08-08T00:14:24;99044.81;;;23.73;77.39
66689;BME280;53587;59.318;18.084;2023-08-08T00:16:49;99039.50;;;23.87;76.36
66689;BME280;53587;59.318;18.084;2023-08-08T00:19:15;99040.44;;;23.95;75.54
66689;BME280;53587;59.318;18.084;2023-08-08T00:21:40;99045.75;;;24.04;76.21
66689;BME280;53587;59.318;18.084;2023-08-08T00:24:05;99050.25;;;24.12;76.04
66689;BME280;53587;59.318;18.084;2023-08-08T00:26:30;99047.16;;;24.17;75.62
66689;BME280;53587;59.318;18.084;2023-08-08T00:28:55;99028.19;;;24.23;74.83
66689;BME280;53587;59.318;18.084;2023-08-08T00:31:21;99023.84;;;24.25;74.77
66689;BME280;53587;59.318;18.084;2023-08-08T00:33:46;99016.38;;;24.33;75.34
66689;BME280;53587;59.318;18.084;2023-08-08T00:36:11;99009.31;;;24.39;74.65
66689;BME280;53587;59.318;18.084;2023-08-08T00:38:36;99011.78;;;24.44;75.85
66689;BME280;53587;59.318;18.084;2023-08-08T00:41:02;99015.03;;;24.50;74.36
66689;BME280;53587;59.318;18.084;2023-08-08T00:43:27;99010.25;;;24.51;74.12
66689;BME280;53587;59.318;18.084;2023-08-08T00:45:52;99017.50;;;24.55;75.15
66689;BME280;53587;59.318;18.084;2023-08-08T00:48:17;98999.44;;;24.15;71.43
66689;BME280;53587;59.318;18.084;2023-08-08T00:50:44;99000.09;;;23.58;72.25
66689;BME280;53587;59.318;18.084;2023-08-08T00:53:10;98996.25;;;23.20;71.94
66689;BME280;53587;59.318;18.084;2023-08-08T00:55:35;98995.50;;;22.84;71.65
66689;BME280;53587;59.318;18.084;2023-08-08T00:58:01;98998.00;;;22.89;77.87
66689;BME280;53587;59.318;18.084;2023-08-08T01:00:26;98989.88;;;23.00;80.99
66689;BME280;53587;59.318;18.084;2023-08-08T01:02:51;98981.47;;;23.16;81.95
66689;BME280;53587;59.318;18.084;2023-08-08T01:05:17;98977.47;;;23.37;78.61
66689;BME280;53587;59.318;18.084;2023-08-08T01:07:44;98970.56;;;23.50;78.01
66689;BME280;53587;59.318;18.084;2023-08-08T01:10:13;98962.16;;;23.70;77.27
66689;BME280;53587;59.318;18.084;2023-08-08T01:12:41;98962.75;;;23.83;75.92
66689;BME280;53587;59.318;18.084;2023-08-08T01:15:07;98963.72;;;23.94;76.13
66689;BME280;53587;59.318;18.084;2023-08-08T01:17:33;98954.75;;;24.04;75.29
66689;BME280;53587;59.318;18.084;2023-08-08T01:20:00;98937.34;;;24.11;75.65
66689;BME280;53587;59.318;18.084;2023-08-08T01:22:27;98952.22;;;24.22;75.78
66689;BME280;53587;59.318;18.084;2023-08-08T01:24:54;98942.34;;;24.25;75.35
66689;BME280;53587;59.318;18.084;2023-08-08T01:27:20;98942.84;;;24.34;74.94
66689;BME280;53587;59.318;18.084;2023-08-08T01:29:46;98930.59;;;24.39;74.60
66689;BME280;53587;59.318;18.084;2023-08-08T01:32:11;98918.69;;;24.42;75.25
66689;BME280;53587;59.318;18.084;2023-08-08T01:34:36;98917.97;;;24.49;74.72
66689;BME280;53587;59.318;18.084;2023-08-08T01:39:27;98909.34;;;24.57;75.09
66689;BME280;53587;59.318;18.084;2023-08-08T01:41:54;98897.19;;;24.08;71.00
66689;BME280;53587;59.318;18.084;2023-08-08T01:44:20;98892.47;;;23.59;71.56
66689;BME280;53587;59.318;18.084;2023-08-08T01:46:47;98891.06;;;23.22;71.68
66689;BME280;53587;59.318;18.084;2023-08-08T01:49:12;98878.47;;;22.82;72.08
66689;BME280;53587;59.318;18.084;2023-08-08T01:51:37;98879.00;;;22.91;77.88
66689;BME280;53587;59.318;18.084;2023-08-08T01:54:02;98876.06;;;23.04;80.98
66689;BME280;53587;59.318;18.084;2023-08-08T01:56:28;98872.38;;;23.19;81.35
66689;BME280;53587;59.318;18.084;2023-08-08T01:58:53;98860.75;;;23.37;77.84
66689;BME280;53587;59.318;18.084;2023-08-08T02:01:18;98875.28;;;23.50;78.05
66689;BME280;53587;59.318;18.084;2023-08-08T02:03:43;98868.00;;;23.68;76.81
66689;BME280;53587;59.318;18.084;2023-08-08T02:06:08;98859.38;;;23.77;75.85
66689;BME280;53587;59.318;18.084;2023-08-08T02:08:34;98859.16;;;23.89;75.99
66689;BME280;53587;59.318;18.084;2023-08-08T02:10:59;98850.16;;;24.00;75.77
66689;BME280;53587;59.318;18.084;2023-08-08T02:13:24;98849.84;;;24.05;74.62
66689;BME280;53587;59.318;18.084;2023-08-08T02:15:49;98841.69;;;24.19;74.78
66689;BME280;53587;59.318;18.084;2023-08-08T02:18:14;98832.56;;;24.22;74.79
66689;BME280;53587;59.318;18.084;2023-08-08T02:20:40;98819.91;;;24.28;75.49
66689;BME280;53587;59.318;18.084;2023-08-08T02:23:05;98814.41;;;24.36;73.85
66689;BME280;53587;59.318;18.084;2023-08-08T02:25:30;98813.69;;;24.39;74.61
66689;BME280;53587;59.318;18.084;2023-08-08T02:27:56;98807.38;;;24.46;73.75
66689;BME280;53587;59.318;18.084;2023-08-08T02:30:21;98794.66;;;24.48;73.92
66689;BME280;53587;59.318;18.084;2023-08-08T02:32:46;98801.09;;;24.52;74.75
66689;BME280;53587;59.318;18.084;2023-08-08T02:35:11;98792.06;;;24.28;71.23
66689;BME280;53587;59.318;18.084;2023-08-08T02:37:37;98792.94;;;23.72;70.97
66689;BME280;53587;59.318;18.084;2023-08-08T02:40:02;98805.06;;;23.29;71.70
66689;BME280;53587;59.318;18.084;2023-08-08T02:42:27;98793.75;;;22.92;70.68
66689;BME280;53587;59.318;18.084;2023-08-08T02:44:53;98790.47;;;22.86;75.48
66689;BME280;53587;59.318;18.084;2023-08-08T02:47:18;98789.41;;;22.94;79.54
66689;BME280;53587;59.318;18.084;2023-08-08T02:49:43;98781.25;;;23.05;81.51
66689;BME280;53587;59.318;18.084;2023-08-08T02:52:08;98770.88;;;23.25;78.66
66689;BME280;53587;59.318;18.084;2023-08-08T02:54:33;98766.28;;;23.37;77.09
66689;BME280;53587;59.318;18.084;2023-08-08T02:56:59;98757.81;;;23.56;77.22
66689;BME280;53587;59.318;18.084;2023-08-08T02:59:24;98755.56;;;23.69;75.35
66689;BME280;53587;59.318;18.084;2023-08-08T03:01:49;98748.19;;;23.80;75.48
66689;BME280;53587;59.318;18.084;2023-08-08T03:04:15;98745.47;;;23.88;74.68
66689;BME280;53587;59.318;18.084;2023-08-08T03:06:40;98731.47;;;23.46;72.57
66689;BME280;53587;59.318;18.084;2023-08-08T03:09:05;98720.38;;;23.20;72.43
66689;BME280;53587;59.318;18.084;2023-08-08T03:11:30;98720.91;;;22.79;71.51
66689;BME280;53587;59.318;18.084;2023-08-08T03:13:55;98708.59;;;22.53;71.89
66689;BME280;53587;59.318;18.084;2023-08-08T03:16:21;98714.16;;;22.53;77.36
66689;BME280;53587;59.318;18.084;2023-08-08T03:18:46;98719.50;;;22.65;80.23
66689;BME280;53587;59.318;18.084;2023-08-08T03:21:11;98720.25;;;22.86;80.41
66689;BME280;53587;59.318;18.084;2023-08-08T03:23:36;98714.94;;;23.04;78.47
66689;BME280;53587;59.318;18.084;2023-08-08T03:26:02;98705.69;;;23.19;79.13
66689;BME280;53587;59.318;18.084;2023-08-08T03:28:27;98701.97;;;23.38;76.59
66689;BME280;53587;59.318;18.084;2023-08-08T03:30:52;98697.00;;;23.51;76.52
66689;BME280;53587;59.318;18.084;2023-08-08T03:33:17;98690.41;;;23.67;75.74
66689;BME280;53587;59.318;18.084;2023-08-08T03:35:42;98693.72;;;23.76;74.59
66689;BME280;53587;59.318;18.084;2023-08-08T03:38:08;98680.28;;;23.85;75.56
66689;BME280;53587;59.318;18.084;2023-08-08T03:40:33;98685.22;;;23.95;75.07
66689;BME280;53587;59.318;18.084;2023-08-08T03:42:59;98669.34;;;24.00;74.13
66689;BME280;53587;59.318;18.084;2023-08-08T03:45:24;98680.59;;;24.10;74.37
66689;BME280;53587;59.318;18.084;2023-08-08T03:47:49;98668.69;;;24.14;73.39
66689;BME280;53587;59.318;18.084;2023-08-08T03:50:14;98667.97;;;24.20;74.46
66689;BME280;53587;59.318;18.084;2023-08-08T03:52:39;98664.06;;;24.28;73.55
66689;BME280;53587;59.318;18.084;2023-08-08T03:55:05;98656.53;;;24.29;73.32
66689;BME280;53587;59.318;18.084;2023-08-08T03:57:30;98645.81;;;24.35;74.07
66689;BME280;53587;59.318;18.084;2023-08-08T03:59:56;98653.00;;;24.36;73.24
66689;BME280;53587;59.318;18.084;2023-08-08T04:02:21;98634.75;;;24.42;73.51
66689;BME280;53587;59.318;18.084;2023-08-08T04:04:46;98631.25;;;24.49;74.81
66689;BME280;53587;59.318;18.084;2023-08-08T04:07:11;98625.69;;;24.04;72.30
66689;BME280;53587;59.318;18.084;2023-08-08T04:09:37;98630.03;;;23.63;70.59
66689;BME280;53587;59.318;18.084;2023-08-08T04:12:02;98645.50;;;23.30;71.06
66689;BME280;53587;59.318;18.084;2023-08-08T04:14:27;98641.47;;;22.97;71.74
66689;BME280;53587;59.318;18.084;2023-08-08T04:16:52;98631.84;;;23.18;78.13
66689;BME280;53587;59.318;18.084;2023-08-08T04:19:18;98624.53;;;23.37;80.80
66689;BME280;53587;59.318;18.084;2023-08-08T04:21:43;98623.19;;;23.57;78.55
66689;BME280;53587;59.318;18.084;2023-08-08T04:24:08;98621.81;;;23.40;74.37
66689;BME280;53587;59.318;18.084;2023-08-08T04:26:33;98626.28;;;23.18;74.12
66689;BME280;53587;59.318;18.084;2023-08-08T04:28:59;98625.94;;;22.93;73.37
66689;BME280;53587;59.318;18.084;2023-08-08T04:31:24;98632.88;;;22.79;72.88
66689;BME280;53587;59.318;18.084;2023-08-08T04:33:50;98630.00;;;22.99;78.99
66689;BME280;53587;59.318;18.084;2023-08-08T04:36:16;98621.56;;;23.22;81.98
66689;BME280;53587;59.318;18.084;2023-08-08T04:38:41;98622.28;;;23.46;81.36
66689;BME280;53587;59.318;18.084;2023-08-08T04:41:06;98612.25;;;23.38;74.06
66689;BME280;53587;59.318;18.084;2023-08-08T04:43:31;98603.06;;;23.03;73.13
66689;BME280;53587;59.318;18.084;2023-08-08T04:45:56;98605.25;;;22.90;73.62
66689;BME280;53587;59.318;18.084;2023-08-08T04:48:22;98606.97;;;22.72;72.71
66689;BME280;53587;59.318;18.084;2023-08-08T04:50:47;98605.69;;;22.92;78.51
66689;BME280;53587;59.318;18.084;2023-08-08T04:53:12;98605.59;;;23.15;81.64
66689;BME280;53587;59.318;18.084;2023-08-08T04:55:38;98588.41;;;23.37;82.20
66689;BME280;53587;59.318;18.084;2023-08-08T04:58:03;98588.16;;;23.49;76.32
66689;BME280;53587;59.318;18.084;2023-08-08T05:00:28;98586.66;;;23.21;73.57
66689;BME280;53587;59.318;18.084;2023-08-08T05:02:53;98589.56;;;23.02;73.84
66689;BME280;53587;59.318;18.084;2023-08-08T05:05:19;98586.09;;;22.81;73.04
66689;BME280;53587;59.318;18.084;2023-08-08T05:07:44;98589.34;;;22.87;76.88
66689;BME280;53587;59.318;18.084;2023-08-08T05:10:09;98580.16;;;23.13;80.83
66689;BME280;53587;59.318;18.084;2023-08-08T05:12:34;98571.63;;;23.26;82.79
66689;BME280;53587;59.318;18.084;2023-08-08T05:14:59;98567.13;;;23.52;80.12
66689;BME280;53587;59.318;18.084;2023-08-08T05:17:25;98560.50;;;23.26;73.89
66689;BME280;53587;59.318;18.084;2023-08-08T05:19:50;98566.41;;;23.21;73.97
66689;BME280;53587;59.318;18.084;2023-08-08T05:22:15;98554.56;;;22.97;73.29
66689;BME280;53587;59.318;18.084;2023-08-08T05:24:40;98556.75;;;22.80;73.88
66689;BME280;53587;59.318;18.084;2023-08-08T05:27:05;98553.13;;;23.07;79.38
66689;BME280;53587;59.318;18.084;2023-08-08T05:29:31;98543.47;;;23.31;82.04
66689;BME280;53587;59.318;18.084;2023-08-08T05:31:56;98540.97;;;23.56;82.75
66689;BME280;53587;59.318;18.084;2023-08-08T05:34:23;98534.59;;;23.52;73.92
66689;BME280;53587;59.318;18.084;2023-08-08T05:36:48;98535.84;;;23.21;73.36
66689;BME280;53587;59.318;18.084;2023-08-08T05:39:13;98532.44;;;23.04;73.51
66689;BME280;53587;59.318;18.084;2023-08-08T05:41:38;98529.00;;;22.84;73.45
66689;BME280;53587;59.318;18.084;2023-08-08T05:44:04;98516.53;;;23.01;79.00
66689;BME280;53587;59.318;18.084;2023-08-08T05:46:29;98515.25;;;23.25;81.67
66689;BME280;53587;59.318;18.084;2023-08-08T05:48:54;98505.94;;;23.48;83.05
66689;BME280;53587;59.318;18.084;2023-08-08T05:51:19;98505.66;;;23.60;78.40
66689;BME280;53587;59.318;18.084;2023-08-08T05:53:44;98501.09;;;23.38;73.02
66689;BME280;53587;59.318;18.084;2023-08-08T05:56:10;98491.78;;;23.19;73.86
66689;BME280;53587;59.318;18.084;2023-08-08T05:58:35;98487.09;;;22.93;72.82
66689;BME280;53587;59.318;18.084;2023-08-08T06:01:02;98474.44;;;22.95;76.26
66689;BME280;53587;59.318;18.084;2023-08-08T06:03:31;98477.09;;;23.22;81.08
66689;BME280;53587;59.318;18.084;2023-08-08T06:05:56;98462.25;;;23.45;82.77
66689;BME280;53587;59.318;18.084;2023-08-08T06:08:21;98456.09;;;23.66;80.48
66689;BME280;53587;59.318;18.084;2023-08-08T06:10:46;98452.78;;;23.53;73.66
66689;BME280;53587;59.318;18.084;2023-08-08T06:13:11;98454.91;;;23.26;73.53
66689;BME280;53587;59.318;18.084;2023-08-08T06:15:37;98452.34;;;23.10;73.37
66689;BME280;53587;59.318;18.084;2023-08-08T06:18:02;98447.34;;;22.89;73.84
66689;BME280;53587;59.318;18.084;2023-08-08T06:20:27;98454.06;;;23.18;79.97
66689;BME280;53587;59.318;18.084;2023-08-08T06:22:53;98451.13;;;23.41;81.18
66689;BME280;53587;59.318;18.084;2023-08-08T06:25:18;98452.88;;;23.64;82.97
66689;BME280;53587;59.318;18.084;2023-08-08T06:27:44;98437.84;;;23.69;74.80
66689;BME280;53587;59.318;18.084;2023-08-08T06:30:09;98437.97;;;23.38;73.63
66689;BME280;53587;59.318;18.084;2023-08-08T06:32:34;98445.75;;;23.22;73.63
66689;BME280;53587;59.318;18.084;2023-08-08T06:35:00;98436.38;;;22.99;73.30
66689;BME280;53587;59.318;18.084;2023-08-08T06:37:25;98438.06;;;23.08;77.69
66689;BME280;53587;59.318;18.084;2023-08-08T06:39:50;98434.34;;;23.30;81.34
66689;BME280;53587;59.318;18.084;2023-08-08T06:42:15;98428.16;;;23.52;83.19
66689;BME280;53587;59.318;18.084;2023-08-08T06:44:41;98428.31;;;23.70;80.09
66689;BME280;53587;59.318;18.084;2023-08-08T06:47:07;98417.47;;;23.54;72.96
66689;BME280;53587;59.318;18.084;2023-08-08T06:49:33;98420.00;;;23.28;74.11
66689;BME280;53587;59.318;18.084;2023-08-08T06:51:58;98421.00;;;23.09;73.02
66689;BME280;53587;59.318;18.084;2023-08-08T06:54:23;98414.50;;;22.94;74.98
66689;BME280;53587;59.318;18.084;2023-08-08T06:56:48;98423.16;;;23.23;79.92
66689;BME280;53587;59.318;18.084;2023-08-08T06:59:13;98430.50;;;23.46;81.53
66689;BME280;53587;59.318;18.084;2023-08-08T07:01:39;98404.47;;;23.69;81.89
66689;BME280;53587;59.318;18.084;2023-08-08T07:04:04;98412.03;;;23.68;74.70
66689;BME280;53587;59.318;18.084;2023-08-08T07:06:29;98412.16;;;23.38;73.14
66689;BME280;53587;59.318;18.084;2023-08-08T07:08:54;98413.56;;;23.17;73.75
66689;BME280;53587;59.318;18.084;2023-08-08T07:11:20;98411.38;;;22.99;72.55
66689;BME280;53587;59.318;18.084;2023-08-08T07:13:45;98412.31;;;23.14;79.08
66689;BME280;53587;59.318;18.084;2023-08-08T07:16:11;98408.22;;;23.39;81.85
66689;BME280;53587;59.318;18.084;2023-08-08T07:18:36;98411.53;;;23.59;82.49
66689;BME280;53587;59.318;18.084;2023-08-08T07:21:02;98406.06;;;23.70;77.27
66689;BME280;53587;59.318;18.084;2023-08-08T07:23:27;98413.41;;;23.44;73.60
66689;BME280;53587;59.318;18.084;2023-08-08T07:25:53;98415.19;;;23.22;73.71
66689;BME280;53587;59.318;18.084;2023-08-08T07:28:18;98408.22;;;23.01;73.72
66689;BME280;53587;59.318;18.084;2023-08-08T07:30:44;98416.16;;;23.03;76.39
66689;BME280;53587;59.318;18.084;2023-08-08T07:33:09;98418.44;;;23.27;81.08
66689;BME280;53587;59.318;18.084;2023-08-08T07:35:34;98423.41;;;23.52;83.05
66689;BME280;53587;59.318;18.084;2023-08-08T07:37:59;98414.81;;;23.72;80.94
66689;BME280;53587;59.318;18.084;2023-08-08T07:40:25;98411.97;;;23.61;73.76
66689;BME280;53587;59.318;18.084;2023-08-08T07:42:50;98408.97;;;23.36;72.92
66689;BME280;53587;59.318;18.084;2023-08-08T07:45:16;98411.97;;;23.16;73.42
66689;BME280;53587;59.318;18.084;2023-08-08T07:47:41;98407.81;;;23.03;73.74
66689;BME280;53587;59.318;18.084;2023-08-08T07:50:06;98414.84;;;23.27;79.77
66689;BME280;53587;59.318;18.084;2023-08-08T07:52:35;98413.47;;;23.51;82.24
66689;BME280;53587;59.318;18.084;2023-08-08T07:55:00;98398.13;;;23.72;82.62
66689;BME280;53587;59.318;18.084;2023-08-08T07:57:28;98402.16;;;23.78;75.59
66689;BME280;53587;59.318;18.084;2023-08-08T07:59:55;98408.31;;;23.53;73.41
66689;BME280;53587;59.318;18.084;2023-08-08T08:02:20;98406.94;;;23.29;72.89
66689;BME280;53587;59.318;18.084;2023-08-08T08:04:46;98412.66;;;23.09;73.34
66689;BME280;53587;59.318;18.084;2023-08-08T08:07:11;98407.25;;;23.20;78.76
66689;BME280;53587;59.318;18.084;2023-08-08T08:09:36;98408.59;;;23.41;80.80
66689;BME280;53587;59.318;18.084;2023-08-08T08:12:01;98411.56;;;23.62;82.45
66689;BME280;53587;59.318;18.084;2023-08-08T08:14:27;98413.25;;;23.74;78.98
66689;BME280;53587;59.318;18.084;2023-08-08T08:16:52;98411.94;;;23.57;73.86
66689;BME280;53587;59.318;18.084;2023-08-08T08:19:18;98412.97;;;23.38;74.37
66689;BME280;53587;59.318;18.084;2023-08-08T08:21:44;98422.31;;;23.19;73.89
66689;BME280;53587;59.318;18.084;2023-08-08T08:24:09;98421.47;;;23.15;76.29
66689;BME280;53587;59.318;18.084;2023-08-08T08:26:35;98413.78;;;23.39;81.38
66689;BME280;53587;59.318;18.084;2023-08-08T08:29:00;98414.72;;;23.57;82.65
66689;BME280;53587;59.318;18.084;2023-08-08T08:31:25;98414.50;;;23.80;82.62
66689;BME280;53587;59.318;18.084;2023-08-08T08:33:50;98418.00;;;23.74;74.41
66689;BME280;53587;59.318;18.084;2023-08-08T08:36:16;98414.63;;;23.46;72.84
66689;BME280;53587;59.318;18.084;2023-08-08T08:38:41;98417.63;;;23.27;73.00
66689;BME280;53587;59.318;18.084;2023-08-08T08:41:06;98413.47;;;23.10;73.08
66689;BME280;53587;59.318;18.084;2023-08-08T08:43:33;98424.00;;;23.31;79.69
66689;BME280;53587;59.318;18.084;2023-08-08T08:45:59;98426.59;;;23.54;82.27
66689;BME280;53587;59.318;18.084;2023-08-08T08:48:26;98430.72;;;23.75;83.34
66689;BME280;53587;59.318;18.084;2023-08-08T08:50:51;98431.53;;;23.79;76.67
66689;BME280;53587;59.318;18.084;2023-08-08T08:53:17;98433.78;;;23.59;73.59
66689;BME280;53587;59.318;18.084;2023-08-08T08:55:43;98435.16;;;23.35;74.40
66689;BME280;53587;59.318;18.084;2023-08-08T08:58:08;98445.28;;;23.16;73.86
66689;BME280;53587;59.318;18.084;2023-08-08T09:00:34;98444.53;;;23.19;78.73
66689;BME280;53587;59.318;18.084;2023-08-08T09:03:00;98445.59;;;23.45;81.42
66689;BME280;53587;59.318;18.084;2023-08-08T09:05:25;98454.88;;;23.63;83.00
66689;BME280;53587;59.318;18.084;2023-08-08T09:07:51;98453.03;;;23.82;80.84
66689;BME280;53587;59.318;18.084;2023-08-08T09:10:17;98444.16;;;23.66;74.56
66689;BME280;53587;59.318;18.084;2023-08-08T09:12:42;98459.06;;;23.43;73.87
66689;BME280;53587;59.318;18.084;2023-08-08T09:15:08;98464.41;;;23.21;73.18
66689;BME280;53587;59.318;18.084;2023-08-08T09:17:34;98463.47;;;23.10;74.93
66689;BME280;53587;59.318;18.084;2023-08-08T09:19:59;98466.16;;;23.37;81.13
66689;BME280;53587;59.318;18.084;2023-08-08T09:22:25;98472.31;;;23.60;82.17
66689;BME280;53587;59.318;18.084;2023-08-08T09:24:51;98467.69;;;23.79;83.93
66689;BME280;53587;59.318;18.084;2023-08-08T09:27:17;98474.47;;;23.78;75.33
66689;BME280;53587;59.318;18.084;2023-08-08T09:29:42;98467.88;;;23.52;74.31
66689;BME280;53587;59.318;18.084;2023-08-08T09:32:07;98482.00;;;23.33;74.55
66689;BME280;53587;59.318;18.084;2023-08-08T09:34:33;98479.38;;;23.13;73.45
66689;BME280;53587;59.318;18.084;2023-08-08T09:36:59;98495.88;;;23.33;79.30
66689;BME280;53587;59.318;18.084;2023-08-08T09:39:25;98498.88;;;23.54;81.72
66689;BME280;53587;59.318;18.084;2023-08-08T09:41:50;98495.91;;;23.77;83.80
66689;BME280;53587;59.318;18.084;2023-08-08T09:44:15;98498.28;;;23.79;77.88
66689;BME280;53587;59.318;18.084;2023-08-08T09:46:41;98506.47;;;23.61;73.38
66689;BME280;53587;59.318;18.084;2023-08-08T09:49:06;98505.88;;;23.41;74.06
66689;BME280;53587;59.318;18.084;2023-08-08T09:51:33;98508.88;;;23.21;73.75
66689;BME280;53587;59.318;18.084;2023-08-08T09:53:59;98517.59;;;23.23;76.78
66689;BME280;53587;59.318;18.084;2023-08-08T09:56:25;98517.06;;;23.48;81.45
66689;BME280;53587;59.318;18.084;2023-08-08T09:58:51;98528.41;;;23.70;82.55
66689;BME280;53587;59.318;18.084;2023-08-08T10:01:16;98531.56;;;23.68;78.60
66689;BME280;53587;59.318;18.084;2023-08-08T10:03:41;98531.31;;;23.43;72.21
66689;BME280;53587;59.318;18.084;2023-08-08T10:06:09;98536.59;;;23.18;72.40
66689;BME280;53587;59.318;18.084;2023-08-08T10:08:35;98553.56;;;23.12;76.09
66689;BME280;53587;59.318;18.084;2023-08-08T10:11:00;98547.16;;;23.39;80.29
66689;BME280;53587;59.318;18.084;2023-08-08T10:13:26;98557.28;;;23.58;82.66
66689;BME280;53587;59.318;18.084;2023-08-08T10:15:52;98564.72;;;23.46;75.95
66689;BME280;53587;59.318;18.084;2023-08-08T10:18:17;98560.53;;;23.29;74.93
66689;BME280;53587;59.318;18.084;2023-08-08T10:20:44;98575.78;;;23.12;74.77
66689;BME280;53587;59.318;18.084;2023-08-08T10:23:14;98587.94;;;23.00;73.37
66689;BME280;53587;59.318;18.084;2023-08-08T10:25:43;98583.50;;;23.23;80.44
66689;BME280;53587;59.318;18.084;2023-08-08T10:28:09;98596.44;;;23.45;82.88
66689;BME280;53587;59.318;18.084;2023-08-08T10:30:42;98599.09;;;23.69;83.91
66689;BME280;53587;59.318;18.084;2023-08-08T10:33:15;98604.25;;;23.70;75.13
66689;BME280;53587;59.318;18.084;2023-08-08T10:35:40;98618.72;;;23.49;73.82
66689;BME280;53587;59.318;18.084;2023-08-08T10:38:08;98620.78;;;23.22;74.35
66689;BME280;53587;59.318;18.084;2023-08-08T10:40:33;98630.84;;;23.03;73.47
66689;BME280;53587;59.318;18.084;2023-08-08T10:42:59;98631.94;;;23.25;80.20
66689;BME280;53587;59.318;18.084;2023-08-08T10:45:28;98638.56;;;23.47;81.92
66689;BME280;53587;59.318;18.084;2023-08-08T10:47:54;98634.06;;;23.70;83.22
66689;BME280;53587;59.318;18.084;2023-08-08T10:50:22;98645.25;;;23.77;77.54
66689;BME280;53587;59.318;18.084;2023-08-08T10:57:52;98673.81;;;23.13;73.84
66689;BME280;53587;59.318;18.084;2023-08-08T11:00:18;98673.09;;;23.16;78.42
66689;BME280;53587;59.318;18.084;2023-08-08T11:02:44;98678.19;;;23.41;81.84
66689;BME280;53587;59.318;18.084;2023-08-08T11:05:09;98698.31;;;23.61;83.15
66689;BME280;53587;59.318;18.084;2023-08-08T11:07:34;98705.66;;;23.80;80.34
66689;BME280;53587;59.318;18.084;2023-08-08T11:10:02;98703.53;;;23.66;73.56
66689;BME280;53587;59.318;18.084;2023-08-08T11:12:27;98714.75;;;23.43;74.10
66689;BME280;53587;59.318;18.084;2023-08-08T11:14:52;98720.03;;;23.21;73.56
66689;BME280;53587;59.318;18.084;2023-08-08T11:17:18;98738.03;;;23.08;75.75
66689;BME280;53587;59.318;18.084;2023-08-08T11:19:43;98737.63;;;23.33;80.06
66689;BME280;53587;59.318;18.084;2023-08-08T11:22:09;98745.03;;;23.52;83.53
66689;BME280;53587;59.318;18.084;2023-08-08T11:24:34;98747.66;;;23.71;82.91
66689;BME280;53587;59.318;18.084;2023-08-08T11:27:00;98756.84;;;23.75;74.51
66689;BME280;53587;59.318;18.084;2023-08-08T11:29:25;98764.81;;;23.46;73.87
66689;BME280;53587;59.318;18.084;2023-08-08T11:31:55;98764.16;;;23.26;73.38
66689;BME280;53587;59.318;18.084;2023-08-08T11:34:21;98771.38;;;23.08;72.90
66689;BME280;53587;59.318;18.084;2023-08-08T11:36:47;98778.03;;;23.26;79.47
66689;BME280;53587;59.318;18.084;2023-08-08T11:39:13;98772.38;;;23.46;82.57
66689;BME280;53587;59.318;18.084;2023-08-08T11:41:38;98773.81;;;23.67;83.38
66689;BME280;53587;59.318;18.084;2023-08-08T11:44:05;98781.94;;;23.79;77.90
66689;BME280;53587;59.318;18.084;2023-08-08T11:46:32;98787.09;;;23.50;73.71
66689;BME280;53587;59.318;18.084;2023-08-08T11:49:03;98789.63;;;23.32;73.57
66689;BME280;53587;59.318;18.084;2023-08-08T11:51:29;98795.19;;;23.09;73.52
66689;BME280;53587;59.318;18.084;2023-08-08T11:53:54;98805.72;;;23.19;78.12
66689;BME280;53587;59.318;18.084;2023-08-08T11:56:20;98806.78;;;23.38;81.71
66689;BME280;53587;59.318;18.084;2023-08-08T11:58:47;98813.06;;;23.61;82.90
66689;BME280;53587;59.318;18.084;2023-08-08T12:01:13;98809.78;;;23.83;81.60
66689;BME280;53587;59.318;18.084;2023-08-08T12:03:39;98813.50;;;23.63;74.27
66689;BME280;53587;59.318;18.084;2023-08-08T12:06:13;98823.19;;;23.46;74.40
66689;BME280;53587;59.318;18.084;2023-08-08T12:08:40;98822.06;;;23.24;73.83
66689;BME280;53587;59.318;18.084;2023-08-08T12:11:05;98827.00;;;23.11;74.72
66689;BME280;53587;59.318;18.084;2023-08-08T12:13:31;98844.09;;;23.37;80.64
66689;BME280;53587;59.318;18.084;2023-08-08T12:15:56;98840.41;;;23.56;81.83
66689;BME280;53587;59.318;18.084;2023-08-08T12:18:23;98841.53;;;23.78;83.10
66689;BME280;53587;59.318;18.084;2023-08-08T12:20:49;98841.13;;;23.79;74.50
66689;BME280;53587;59.318;18.084;2023-08-08T12:23:14;98849.88;;;23.51;73.02
66689;BME280;53587;59.318;18.084;2023-08-08T12:25:41;98844.03;;;23.33;73.71
66689;BME280;53587;59.318;18.084;2023-08-08T12:28:07;98852.06;;;23.15;72.17
66689;BME280;53587;59.318;18.084;2023-08-08T12:30:32;98857.84;;;23.29;78.37
66689;BME280;53587;59.318;18.084;2023-08-08T12:32:57;98868.88;;;23.49;80.75
66689;BME280;53587;59.318;18.084;2023-08-08T12:35:23;98870.41;;;23.70;82.18
66689;BME280;53587;59.318;18.084;2023-08-08T12:37:51;98873.28;;;23.77;76.59
66689;BME280;53587;59.318;18.084;2023-08-08T12:40:17;98872.06;;;23.47;73.69
66689;BME280;53587;59.318;18.084;2023-08-08T12:42:42;98876.09;;;23.27;73.02
66689;BME280;53587;59.318;18.084;2023-08-08T12:45:07;98885.69;;;23.10;73.65
66689;BME280;53587;59.318;18.084;2023-08-08T12:47:33;98903.22;;;23.14;76.36
66689;BME280;53587;59.318;18.084;2023-08-08T12:50:01;98891.31;;;23.37;81.20